createdAt,value
2022-10-06T00:02:19.203Z,13.87
2022-10-06T00:04:46.948Z,13.76
2022-10-06T00:07:14.764Z,13.77
2022-10-06T00:09:41.821Z,13.74
2022-10-06T00:12:09.197Z,13.72
2022-10-06T00:14:36.711Z,13.75
2022-10-06T00:17:03.592Z,13.72
2022-10-06T00:19:30.117Z,13.73
2022-10-06T00:21:56.633Z,13.73
2022-10-06T00:24:23.044Z,13.49
2022-10-06T00:26:49.493Z,13.64
2022-10-06T00:29:15.979Z,13.66
2022-10-06T00:31:42.424Z,13.70
2022-10-06T00:34:08.946Z,13.65
2022-10-06T00:36:35.371Z,13.72
2022-10-06T00:39:01.900Z,13.69
2022-10-06T00:41:28.279Z,13.73
2022-10-06T00:43:56.986Z,13.68
2022-10-06T00:46:34.148Z,13.72
2022-10-06T00:49:15.996Z,13.74
2022-10-06T00:51:47.489Z,13.82
2022-10-06T00:54:14.638Z,13.81
2022-10-06T00:56:41.634Z,13.80
2022-10-06T00:59:11.062Z,13.72
2022-10-06T01:01:42.349Z,13.83
2022-10-06T01:04:13.706Z,13.30
2022-10-06T01:06:48.219Z,13.87
2022-10-06T01:09:16.848Z,13.88
2022-10-06T01:11:44.691Z,13.92
2022-10-06T01:14:11.502Z,13.97
2022-10-06T01:16:41.258Z,13.99
2022-10-06T01:19:17.898Z,14.02
2022-10-06T01:21:47.512Z,14.03
2022-10-06T01:24:14.541Z,14.05
2022-10-06T01:26:45.729Z,14.12
2022-10-06T01:29:12.946Z,13.94
2022-10-06T01:31:39.811Z,14.07
2022-10-06T01:34:06.419Z,13.90
2022-10-06T01:36:32.919Z,14.05
2022-10-06T01:38:59.302Z,14.16
2022-10-06T01:41:27.615Z,14.15
2022-10-06T01:43:54.425Z,14.12
2022-10-06T01:46:21.314Z,14.16
2022-10-06T01:48:47.893Z,14.13
2022-10-06T01:51:16.124Z,14.19
2022-10-06T01:53:42.936Z,14.16
2022-10-06T01:56:09.951Z,14.22
2022-10-06T01:58:36.434Z,14.22
2022-10-06T02:01:07.739Z,14.25
2022-10-06T02:03:36.737Z,14.17
2022-10-06T02:06:04.503Z,14.22
2022-10-06T02:08:31.916Z,14.23
2022-10-06T02:11:09.173Z,14.20
2022-10-06T02:13:40.392Z,14.24
2022-10-06T02:16:08.847Z,14.25
2022-10-06T02:18:36.475Z,14.24
2022-10-06T02:21:03.607Z,14.26
2022-10-06T02:23:30.699Z,14.25
2022-10-06T02:26:01.953Z,14.29
2022-10-06T02:28:30.054Z,14.25
2022-10-06T02:31:08.529Z,14.31
2022-10-06T02:33:37.823Z,14.31
2022-10-06T02:36:06.970Z,14.33
2022-10-06T02:38:34.226Z,14.28
2022-10-06T02:41:04.657Z,14.19
2022-10-06T02:43:31.742Z,14.06
2022-10-06T02:46:08.633Z,14.23
2022-10-06T02:48:35.386Z,14.18
2022-10-06T02:51:09.405Z,14.01
2022-10-06T02:53:37.316Z,13.82
2022-10-06T02:56:12.410Z,13.74
2022-10-06T02:58:40.006Z,13.63
2022-10-06T03:01:13.393Z,13.70
2022-10-06T03:03:40.801Z,13.66
2022-10-06T03:06:22.477Z,13.45
2022-10-06T03:09:05.793Z,13.42
2022-10-06T03:11:35.983Z,13.41
2022-10-06T03:14:03.655Z,13.44
2022-10-06T03:16:38.715Z,13.41
2022-10-06T03:19:09.755Z,13.46
2022-10-06T03:21:41.864Z,13.54
2022-10-06T03:24:09.097Z,13.56
2022-10-06T03:26:43.654Z,13.62
2022-10-06T03:29:11.947Z,13.65
2022-10-06T03:31:43.155Z,13.67
2022-10-06T03:34:09.910Z,13.15
2022-10-06T03:36:36.837Z,13.65
2022-10-06T03:39:04.914Z,13.67
2022-10-06T03:41:35.956Z,13.60
2022-10-06T03:44:04.257Z,13.63
2022-10-06T03:46:34.683Z,13.66
2022-10-06T03:49:04.195Z,13.68
2022-10-06T03:51:33.577Z,13.65
2022-10-06T03:54:00.814Z,13.65
2022-10-06T03:56:39.835Z,13.67
2022-10-06T03:59:09.164Z,13.66
2022-10-06T04:01:42.698Z,13.62
2022-10-06T04:04:11.704Z,13.59
2022-10-06T04:06:42.044Z,13.57
2022-10-06T04:09:15.688Z,13.57
2022-10-06T04:11:44.249Z,13.54
2022-10-06T04:14:13.675Z,13.48
2022-10-06T04:16:45.953Z,13.51
2022-10-06T04:19:16.082Z,13.57
2022-10-06T04:21:47.754Z,13.61
2022-10-06T04:24:18.435Z,13.55
2022-10-06T04:26:48.927Z,13.55
2022-10-06T04:29:17.132Z,13.58
2022-10-06T04:31:46.056Z,13.56
2022-10-06T04:34:32.881Z,13.54
2022-10-06T04:36:59.364Z,13.49
2022-10-06T04:39:25.877Z,13.42
2022-10-06T04:41:52.814Z,13.56
2022-10-06T04:44:26.230Z,13.54
2022-10-06T04:46:55.310Z,13.49
2022-10-06T04:49:21.716Z,13.52
2022-10-06T04:51:51.443Z,13.53
2022-10-06T04:54:19.141Z,13.45
2022-10-06T04:56:47.632Z,13.51
2022-10-06T04:59:17.541Z,13.35
2022-10-06T05:01:45.304Z,13.36
2022-10-06T05:04:13.493Z,13.39
2022-10-06T05:06:41.998Z,13.50
2022-10-06T05:09:15.464Z,13.45
2022-10-06T05:11:49.193Z,13.43
2022-10-06T05:14:18.634Z,13.36
2022-10-06T05:16:47.875Z,13.39
2022-10-06T05:19:14.897Z,13.40
2022-10-06T05:21:41.931Z,13.26
2022-10-06T05:24:11.476Z,13.39
2022-10-06T05:26:38.439Z,13.26
2022-10-06T05:29:08.597Z,13.36
2022-10-06T05:31:41.095Z,13.36
2022-10-06T05:34:08.519Z,13.35
2022-10-06T05:36:36.165Z,13.37
2022-10-06T05:39:03.974Z,13.32
2022-10-06T05:41:38.478Z,13.17
2022-10-06T05:44:08.950Z,13.19
2022-10-06T05:46:37.539Z,13.18
2022-10-06T05:49:10.539Z,13.13
2022-10-06T05:51:40.909Z,13.01
2022-10-06T05:54:28.124Z,13.11
2022-10-06T05:56:54.774Z,13.08
2022-10-06T05:59:22.083Z,12.98
2022-10-06T06:01:49.189Z,12.98
2022-10-06T06:04:24.630Z,12.95
2022-10-06T06:06:54.726Z,12.95
2022-10-06T06:09:26.311Z,12.82
2022-10-06T06:11:54.870Z,12.91
2022-10-06T06:14:44.747Z,12.74
2022-10-06T06:17:15.989Z,12.86
2022-10-06T06:19:42.466Z,12.89
2022-10-06T06:22:09.071Z,13.02
2022-10-06T06:24:39.749Z,13.20
2022-10-06T06:27:07.254Z,13.27
2022-10-06T06:29:33.816Z,13.08
2022-10-06T06:32:00.352Z,13.21
2022-10-06T06:34:27.407Z,13.49
2022-10-06T06:36:55.821Z,13.80
2022-10-06T06:39:22.549Z,14.24
2022-10-06T06:41:50.686Z,14.58
2022-10-06T06:44:41.753Z,14.68
2022-10-06T06:47:20.770Z,14.96
2022-10-06T06:49:49.916Z,15.30
2022-10-06T06:52:16.747Z,15.56
2022-10-06T06:54:43.161Z,15.78
2022-10-06T06:57:13.222Z,16.23
2022-10-06T06:59:39.891Z,16.43
2022-10-06T07:02:10.107Z,16.72
2022-10-06T07:04:38.953Z,17.07
2022-10-06T07:07:10.490Z,17.20
2022-10-06T07:09:37.087Z,17.40
2022-10-06T07:12:13.312Z,17.51
2022-10-06T07:15:04.609Z,17.77
2022-10-06T07:17:55.747Z,17.91
2022-10-06T07:20:41.641Z,18.20
2022-10-06T07:23:34.436Z,18.26
2022-10-06T07:26:01.925Z,18.55
2022-10-06T07:28:30.683Z,18.77
2022-10-06T07:31:00.502Z,18.94
2022-10-06T07:33:29.234Z,19.13
2022-10-06T07:38:25.884Z,19.46
2022-10-06T07:41:18.486Z,19.43
2022-10-06T07:43:47.216Z,19.49
2022-10-06T07:46:15.581Z,19.42
2022-10-06T07:48:48.925Z,19.73
2022-10-06T07:51:18.538Z,19.79
2022-10-06T07:53:46.771Z,19.80
2022-10-06T07:56:25.670Z,19.50
2022-10-06T07:58:56.153Z,19.23
2022-10-06T08:01:22.701Z,19.39
2022-10-06T08:03:50.501Z,18.82
2022-10-06T08:06:19.717Z,18.38
2022-10-06T08:08:52.508Z,19.00
2022-10-06T08:11:19.486Z,19.46
2022-10-06T08:13:48.178Z,20.05
2022-10-06T08:16:17.765Z,20.45
2022-10-06T08:18:53.280Z,20.74
2022-10-06T08:21:31.384Z,21.02
2022-10-06T08:23:58.946Z,21.22
2022-10-06T08:26:27.010Z,21.43
2022-10-06T08:28:57.491Z,21.04
2022-10-06T08:31:24.200Z,20.76
2022-10-06T08:33:56.013Z,20.57
2022-10-06T08:36:29.819Z,20.72
2022-10-06T08:38:57.746Z,21.00
2022-10-06T08:41:39.958Z,21.30
2022-10-06T08:44:15.831Z,21.37
2022-10-06T08:46:46.482Z,21.21
2022-10-06T08:49:22.047Z,21.17
2022-10-06T08:52:10.015Z,20.79
2022-10-06T08:54:58.337Z,20.91
2022-10-06T08:57:53.143Z,20.89
2022-10-06T09:00:21.458Z,20.98
2022-10-06T09:02:50.448Z,21.19
2022-10-06T09:05:25.066Z,21.14
2022-10-06T09:08:33.677Z,21.29
2022-10-06T09:11:25.062Z,21.56
2022-10-06T09:14:11.731Z,21.73
2022-10-06T09:16:43.358Z,21.61
2022-10-06T09:19:24.784Z,21.70
2022-10-06T09:21:53.738Z,21.53
2022-10-06T09:24:46.949Z,21.38
2022-10-06T09:27:20.722Z,21.52
2022-10-06T09:29:50.357Z,21.47
2022-10-06T09:32:19.540Z,21.30
2022-10-06T09:34:55.869Z,21.39
2022-10-06T09:37:23.187Z,21.57
2022-10-06T09:39:51.593Z,21.65
2022-10-06T09:42:28.288Z,21.77
2022-10-06T09:45:01.009Z,21.62
2022-10-06T09:47:39.963Z,21.41
2022-10-06T09:50:12.422Z,21.44
2022-10-06T09:52:40.709Z,21.10
2022-10-06T09:55:12.917Z,21.01
2022-10-06T09:57:51.525Z,20.94
2022-10-06T10:00:36.209Z,20.45
2022-10-06T10:03:08.120Z,20.48
2022-10-06T10:05:38.370Z,20.78
2022-10-06T10:08:13.756Z,20.99
2022-10-06T10:10:41.348Z,21.10
2022-10-06T10:13:24.380Z,21.28
2022-10-06T10:15:58.823Z,21.51
2022-10-06T10:18:30.136Z,21.63
2022-10-06T10:21:06.108Z,21.31
2022-10-06T10:24:00.830Z,21.22
2022-10-06T10:26:55.123Z,21.01
2022-10-06T10:29:22.121Z,20.91
2022-10-06T10:32:11.586Z,20.82
2022-10-06T10:35:23.051Z,20.98
2022-10-06T10:38:05.034Z,21.36
2022-10-06T10:40:43.981Z,21.43
2022-10-06T10:43:29.397Z,21.40
2022-10-06T10:46:05.667Z,21.23
2022-10-06T10:48:54.140Z,21.25
2022-10-06T10:51:36.294Z,21.15
2022-10-06T10:54:17.297Z,21.12
2022-10-06T10:56:44.770Z,21.10
2022-10-06T10:59:25.249Z,21.02
2022-10-06T11:02:13.661Z,20.91
2022-10-06T11:04:47.086Z,20.79
2022-10-06T11:07:29.412Z,20.79
2022-10-06T11:10:12.171Z,20.86
2022-10-06T11:12:54.365Z,20.97
2022-10-06T11:15:45.767Z,20.81
2022-10-06T11:18:25.711Z,20.74
2022-10-06T11:21:01.171Z,20.69
2022-10-06T11:23:49.681Z,20.64
2022-10-06T11:26:44.581Z,20.53
2022-10-06T11:29:16.823Z,20.49
2022-10-06T11:32:09.480Z,20.44
2022-10-06T11:34:36.252Z,20.17
2022-10-06T11:37:30.888Z,20.15
2022-10-06T11:40:22.330Z,20.06
2022-10-06T11:43:27.667Z,19.95
2022-10-06T11:46:09.173Z,19.87
2022-10-06T11:48:35.844Z,19.76
2022-10-06T11:51:26.067Z,19.83
2022-10-06T11:53:53.015Z,19.85
2022-10-06T11:56:19.450Z,19.76
2022-10-06T11:58:51.960Z,19.17
2022-10-06T12:01:50.095Z,18.06
2022-10-06T12:04:22.089Z,17.65
2022-10-06T12:06:50.818Z,18.02
2022-10-06T12:09:28.685Z,18.38
2022-10-06T12:12:22.070Z,18.56
2022-10-06T12:17:05.486Z,18.63
2022-10-06T12:17:54.048Z,18.62
2022-10-06T12:20:39.834Z,18.81
2022-10-06T12:23:09.307Z,18.76
2022-10-06T12:25:48.422Z,18.98
2022-10-06T12:28:33.199Z,19.00
2022-10-06T12:31:20.654Z,18.97
2022-10-06T12:33:48.448Z,18.70
2022-10-06T12:36:29.863Z,18.69
2022-10-06T12:39:24.797Z,18.46
2022-10-06T12:42:06.277Z,18.13
2022-10-06T12:44:42.870Z,18.23
2022-10-06T12:47:20.361Z,18.13
2022-10-06T12:50:10.182Z,18.14
2022-10-06T12:52:49.105Z,18.26
2022-10-06T12:55:47.899Z,18.39
2022-10-06T12:58:28.693Z,18.43
2022-10-06T13:01:01.152Z,18.64
2022-10-06T13:03:29.030Z,18.54
2022-10-06T13:06:03.144Z,18.59
2022-10-06T13:08:41.270Z,18.62
2022-10-06T13:11:26.694Z,18.73
2022-10-06T13:13:56.116Z,18.80
2022-10-06T13:16:29.719Z,18.83
2022-10-06T13:18:58.218Z,18.73
2022-10-06T13:21:24.967Z,18.04
2022-10-06T13:23:52.243Z,18.61
2022-10-06T13:26:24.448Z,18.64
2022-10-06T13:32:58.142Z,18.75
2022-10-06T13:35:26.428Z,18.71
2022-10-06T13:37:54.999Z,18.58
2022-10-06T13:40:47.526Z,18.50
2022-10-06T13:43:18.266Z,18.44
2022-10-06T13:45:48.220Z,18.50
2022-10-06T13:48:19.417Z,18.54
2022-10-06T13:50:47.885Z,18.52
2022-10-06T13:53:28.048Z,18.38
2022-10-06T13:55:55.178Z,18.36
2022-10-06T13:58:25.064Z,18.20
2022-10-06T14:01:03.410Z,18.33
2022-10-06T14:06:17.877Z,18.00
2022-10-06T14:08:54.694Z,18.19
2022-10-06T14:11:24.697Z,18.27
2022-10-06T14:14:06.377Z,18.30
2022-10-06T14:16:33.234Z,18.30
2022-10-06T14:19:02.358Z,18.35
2022-10-06T14:21:39.431Z,18.35
2022-10-06T14:24:15.061Z,18.04
2022-10-06T14:26:45.840Z,18.03
2022-10-06T14:29:16.623Z,17.92
2022-10-06T14:31:44.362Z,17.62
2022-10-06T14:34:16.391Z,17.24
2022-10-06T14:36:45.221Z,17.32
2022-10-06T14:39:13.501Z,17.30
2022-10-06T14:41:39.990Z,17.38
2022-10-06T14:44:09.997Z,17.27
2022-10-06T14:46:38.226Z,17.56
2022-10-06T14:49:08.852Z,17.60
2022-10-06T14:51:37.302Z,17.62
2022-10-06T14:54:05.444Z,17.36
2022-10-06T14:56:33.600Z,17.16
2022-10-06T14:59:04.522Z,16.92
2022-10-06T15:01:33.325Z,16.76
2022-10-06T15:04:05.119Z,16.87
2022-10-06T15:06:49.820Z,16.98
2022-10-06T15:09:16.473Z,16.96
2022-10-06T15:11:43.152Z,17.11
2022-10-06T15:14:09.965Z,17.15
2022-10-06T15:16:40.708Z,16.70
2022-10-06T15:19:07.163Z,16.78
2022-10-06T15:21:34.136Z,16.86
2022-10-06T15:24:02.947Z,16.59
2022-10-06T15:26:48.940Z,16.60
2022-10-06T15:29:16.890Z,16.74
2022-10-06T15:31:53.080Z,16.80
2022-10-06T15:34:23.427Z,16.81
2022-10-06T15:36:52.366Z,16.79
2022-10-06T15:39:20.788Z,16.78
2022-10-06T15:41:48.555Z,16.72
2022-10-06T15:44:15.558Z,16.86
2022-10-06T15:46:44.701Z,16.87
2022-10-06T15:49:13.406Z,16.83
2022-10-06T15:51:48.023Z,16.79
2022-10-06T15:54:23.703Z,16.83
2022-10-06T15:57:10.505Z,16.77
2022-10-06T15:59:39.977Z,16.78
2022-10-06T16:02:14.275Z,16.73
2022-10-06T16:04:41.923Z,16.60
2022-10-06T16:07:11.040Z,16.55
2022-10-06T16:09:43.038Z,16.60
2022-10-06T16:12:12.174Z,16.57
2022-10-06T16:14:38.564Z,16.58
2022-10-06T16:17:06.741Z,16.53
2022-10-06T16:19:36.525Z,16.28
2022-10-06T16:22:03.395Z,16.38
2022-10-06T16:24:29.819Z,16.29
2022-10-06T16:26:57.893Z,16.15
2022-10-06T16:29:24.508Z,15.93
2022-10-06T16:31:51.074Z,15.84
2022-10-06T16:34:18.772Z,15.76
2022-10-06T16:36:45.765Z,15.71
2022-10-06T16:39:14.311Z,15.61
2022-10-06T16:41:40.789Z,15.52
2022-10-06T16:44:07.305Z,15.24
2022-10-06T16:46:33.848Z,15.09
2022-10-06T16:49:01.816Z,14.91
2022-10-06T16:51:30.716Z,14.80
2022-10-06T16:53:59.644Z,14.79
2022-10-06T16:56:29.064Z,14.63
2022-10-06T16:58:57.893Z,14.57
2022-10-06T17:01:29.460Z,14.29
2022-10-06T17:04:03.567Z,14.20
2022-10-06T17:06:31.263Z,14.23
2022-10-06T17:08:57.898Z,14.16
2022-10-06T17:11:25.350Z,13.81
2022-10-06T17:13:54.489Z,13.71
2022-10-06T17:16:26.856Z,13.35
2022-10-06T17:18:55.550Z,13.52
2022-10-06T17:21:44.128Z,13.34
2022-10-06T17:24:09.368Z,13.10
2022-10-06T17:26:38.676Z,13.21
2022-10-06T17:29:08.690Z,13.21
2022-10-06T17:31:40.724Z,13.13
2022-10-06T17:34:21.217Z,12.97
2022-10-06T17:36:50.978Z,12.73
2022-10-06T17:39:21.101Z,12.86
2022-10-06T17:41:50.198Z,12.78
2022-10-06T17:44:21.122Z,12.66
2022-10-06T17:46:50.552Z,12.76
2022-10-06T17:49:21.917Z,12.80
2022-10-06T17:51:49.767Z,12.73
2022-10-06T17:54:19.954Z,12.78
2022-10-06T17:56:48.934Z,12.77
2022-10-06T17:59:30.410Z,12.68
2022-10-06T18:02:00.152Z,12.59
2022-10-06T18:04:26.983Z,12.58
2022-10-06T18:06:53.933Z,12.57
2022-10-06T18:09:20.928Z,12.55
2022-10-06T18:11:55.544Z,12.48
2022-10-06T18:14:25.912Z,12.33
2022-10-06T18:16:58.737Z,12.10
2022-10-06T18:19:26.746Z,11.88
2022-10-06T18:21:56.397Z,11.66
2022-10-06T18:24:25.663Z,11.45
2022-10-06T18:26:54.161Z,11.50
2022-10-06T18:29:24.629Z,11.48
2022-10-06T18:31:52.701Z,11.37
2022-10-06T18:37:07.021Z,11.31
2022-10-06T18:39:33.575Z,11.18
2022-10-06T18:42:02.822Z,11.20
2022-10-06T18:44:50.048Z,11.01
2022-10-06T18:47:34.955Z,10.85
2022-10-06T18:50:01.527Z,10.75
2022-10-06T18:52:28.648Z,10.61
2022-10-06T18:54:55.124Z,10.52
2022-10-06T18:57:26.558Z,10.48
2022-10-06T18:59:54.215Z,10.58
2022-10-06T19:02:20.801Z,10.51
2022-10-06T19:04:48.193Z,10.42
2022-10-06T19:07:14.614Z,10.45
2022-10-06T19:09:46.173Z,10.41
2022-10-06T19:12:13.989Z,10.27
2022-10-06T19:14:46.949Z,10.26
2022-10-06T19:17:15.059Z,10.15
2022-10-06T19:19:50.929Z,10.12
2022-10-06T19:22:21.465Z,10.12
2022-10-06T19:24:48.413Z,10.10
2022-10-06T19:27:23.978Z,9.81
2022-10-06T19:29:54.369Z,9.86
2022-10-06T19:32:25.328Z,9.84
2022-10-06T19:34:52.268Z,9.80
2022-10-06T19:37:19.060Z,9.73
2022-10-06T19:39:47.962Z,9.71
2022-10-06T19:42:35.334Z,9.73
2022-10-06T19:45:02.155Z,9.62
2022-10-06T19:47:28.833Z,9.27
2022-10-06T19:50:00.826Z,9.37
2022-10-06T19:52:31.015Z,9.42
2022-10-06T19:54:57.462Z,9.35
2022-10-06T19:57:23.914Z,9.37
2022-10-06T19:59:50.885Z,9.43
2022-10-06T20:02:17.335Z,9.42
2022-10-06T20:04:45.231Z,9.36
2022-10-06T20:07:11.703Z,9.06
2022-10-06T20:09:38.181Z,9.17
2022-10-06T20:12:05.868Z,9.20
2022-10-06T20:14:36.172Z,9.14
2022-10-06T20:17:02.731Z,8.96
2022-10-06T20:19:30.900Z,9.05
2022-10-06T20:21:57.793Z,8.95
2022-10-06T20:24:24.901Z,8.88
2022-10-06T20:26:52.931Z,8.93
2022-10-06T20:29:22.805Z,8.72
2022-10-06T20:31:51.903Z,8.86
2022-10-06T20:34:21.328Z,8.90
2022-10-06T20:36:53.113Z,8.68
2022-10-06T20:39:40.883Z,8.76
2022-10-06T20:42:12.259Z,8.75
2022-10-06T20:44:42.126Z,8.72
2022-10-06T20:47:10.137Z,8.81
2022-10-06T20:49:37.173Z,8.47
2022-10-06T20:52:05.632Z,8.34
2022-10-06T20:54:35.506Z,8.64
2022-10-06T20:57:04.592Z,8.47
2022-10-06T20:59:31.969Z,8.46
2022-10-06T21:02:01.689Z,8.33
2022-10-06T21:04:29.122Z,8.39
2022-10-06T21:06:55.684Z,8.30
2022-10-06T21:09:24.237Z,8.29
2022-10-06T21:11:51.391Z,8.31
2022-10-06T21:14:18.425Z,8.07
2022-10-06T21:16:47.198Z,8.14
2022-10-06T21:19:16.325Z,8.15
2022-10-06T21:21:46.064Z,8.04
2022-10-06T21:24:12.636Z,7.87
2022-10-06T21:26:42.544Z,7.88
2022-10-06T21:29:12.878Z,7.75
2022-10-06T21:31:39.495Z,7.73
2022-10-06T21:34:06.253Z,7.67
2022-10-06T21:36:32.859Z,7.77
2022-10-06T21:39:01.394Z,7.88
2022-10-06T21:41:31.714Z,7.78
2022-10-06T21:44:18.315Z,7.66
2022-10-06T21:46:49.718Z,7.91
2022-10-06T21:49:28.278Z,7.78
2022-10-06T21:51:58.385Z,7.90
2022-10-06T21:54:25.240Z,7.72
2022-10-06T21:56:51.880Z,7.82
2022-10-06T21:59:18.538Z,7.83
2022-10-06T22:01:46.637Z,7.68
2022-10-06T22:04:14.600Z,7.66
2022-10-06T22:06:42.997Z,7.75
2022-10-06T22:09:14.402Z,7.60
2022-10-06T22:11:41.468Z,7.51
2022-10-06T22:14:11.564Z,7.58
2022-10-06T22:16:38.811Z,7.44
2022-10-06T22:19:07.537Z,6.95
2022-10-06T22:21:40.954Z,7.40
2022-10-06T22:24:10.618Z,7.35
2022-10-06T22:26:39.519Z,7.22
2022-10-06T22:29:08.551Z,7.17
2022-10-06T22:31:38.160Z,7.21
2022-10-06T22:34:04.970Z,7.27
2022-10-06T22:36:33.104Z,7.19
2022-10-06T22:39:00.268Z,7.23
2022-10-06T22:41:27.440Z,7.05
2022-10-06T22:43:58.585Z,7.09
2022-10-06T22:46:28.091Z,6.99
2022-10-06T22:48:54.996Z,6.86
2022-10-06T22:51:21.754Z,6.83
2022-10-06T22:53:57.245Z,6.97
2022-10-06T22:56:25.177Z,6.90
2022-10-06T22:58:51.913Z,6.88
2022-10-06T23:01:19.694Z,6.88
2022-10-06T23:03:47.161Z,6.85
2022-10-06T23:06:16.248Z,6.89
2022-10-06T23:08:42.965Z,6.73
2022-10-06T23:11:12.971Z,6.80
2022-10-06T23:13:40.276Z,6.70
2022-10-06T23:16:09.239Z,6.87
2022-10-06T23:18:38.657Z,6.90
2022-10-06T23:21:09.386Z,6.87
2022-10-06T23:23:36.865Z,6.70
2022-10-06T23:26:09.067Z,6.71
2022-10-06T23:28:36.011Z,6.72
2022-10-06T23:31:05.439Z,6.75
2022-10-06T23:33:33.365Z,6.72
2022-10-06T23:36:02.164Z,6.74
2022-10-06T23:38:28.937Z,6.74
2022-10-06T23:40:55.686Z,6.71
2022-10-06T23:43:22.913Z,6.71
2022-10-06T23:45:50.288Z,6.58
2022-10-06T23:48:16.972Z,6.50
2022-10-06T23:50:43.637Z,6.46
2022-10-06T23:53:10.377Z,6.42
2022-10-06T23:55:36.917Z,6.56
2022-10-06T23:58:03.488Z,6.53
